createdAt,value
2019-03-30T00:00:57.980Z,91.30
2019-03-30T00:01:57.962Z,88.70
2019-03-30T00:02:57.971Z,92.50
2019-03-30T00:03:57.960Z,93.20
2019-03-30T00:04:57.994Z,93.30
2019-03-30T00:05:57.952Z,90.30
2019-03-30T00:06:57.939Z,96.90
2019-03-30T00:07:57.891Z,96.60
2019-03-30T00:08:57.914Z,91.80
2019-03-30T00:09:57.903Z,96.30
2019-03-30T00:10:57.863Z,95.30
2019-03-30T00:11:58.081Z,93.00
2019-03-30T00:12:57.872Z,98.80
2019-03-30T00:13:57.832Z,95.40
2019-03-30T00:14:57.842Z,95.80
2019-03-30T00:15:57.827Z,93.00
2019-03-30T00:16:57.795Z,91.80
2019-03-30T00:17:57.777Z,91.90
2019-03-30T00:18:57.767Z,92.60
2019-03-30T00:19:57.768Z,94.50
2019-03-30T00:20:57.786Z,96.00
2019-03-30T00:21:57.779Z,91.40
2019-03-30T00:22:57.744Z,96.20
2019-03-30T00:23:57.711Z,95.60
2019-03-30T00:24:57.706Z,94.50
2019-03-30T00:25:57.699Z,100.10
2019-03-30T00:26:57.711Z,93.70
2019-03-30T00:27:57.685Z,101.90
2019-03-30T00:28:57.671Z,105.60
2019-03-30T00:29:57.648Z,103.10
2019-03-30T00:30:57.638Z,99.30
2019-03-30T00:31:57.635Z,94.70
2019-03-30T00:32:57.647Z,99.10
2019-03-30T00:33:57.607Z,92.40
2019-03-30T00:34:57.599Z,97.00
2019-03-30T00:35:57.580Z,96.90
2019-03-30T00:36:57.577Z,101.60
2019-03-30T00:37:57.592Z,99.00
2019-03-30T00:38:57.664Z,102.50
2019-03-30T00:39:57.545Z,100.10
2019-03-30T00:40:57.524Z,98.10
2019-03-30T00:41:57.531Z,102.10
2019-03-30T00:42:57.509Z,98.20
2019-03-30T00:43:57.496Z,98.50
2019-03-30T00:44:57.497Z,96.60
2019-03-30T00:45:57.472Z,96.90
2019-03-30T00:46:57.481Z,104.00
2019-03-30T00:47:57.476Z,97.80
2019-03-30T00:48:57.438Z,100.40
2019-03-30T00:49:57.473Z,101.20
2019-03-30T00:50:57.428Z,101.70
2019-03-30T00:51:57.408Z,98.20
2019-03-30T00:52:57.406Z,102.20
2019-03-30T00:53:57.420Z,103.40
2019-03-30T00:54:57.375Z,105.00
2019-03-30T00:55:57.407Z,104.30
2019-03-30T00:56:57.355Z,103.60
2019-03-30T00:57:57.350Z,103.90
2019-03-30T00:58:57.343Z,108.10
2019-03-30T00:59:57.358Z,108.20
2019-03-30T01:00:57.320Z,108.90
2019-03-30T01:01:57.348Z,101.40
2019-03-30T01:02:57.303Z,108.50
2019-03-30T01:03:57.341Z,108.90
2019-03-30T01:04:57.278Z,108.80
2019-03-30T01:05:58.348Z,101.90
2019-03-30T01:06:57.259Z,104.40
2019-03-30T01:07:57.278Z,105.20
2019-03-30T01:08:57.222Z,103.90
2019-03-30T01:09:57.212Z,104.30
2019-03-30T01:10:57.200Z,105.20
2019-03-30T01:11:57.192Z,104.00
2019-03-30T01:12:57.204Z,103.50
2019-03-30T01:13:57.201Z,107.60
2019-03-30T01:14:57.167Z,102.90
2019-03-30T01:15:57.144Z,103.70
2019-03-30T01:16:57.137Z,104.10
2019-03-30T01:17:57.170Z,101.80
2019-03-30T01:18:57.130Z,102.10
2019-03-30T01:20:03.076Z,101.80
2019-03-30T01:20:58.091Z,102.00
2019-03-30T01:21:57.078Z,97.70
2019-03-30T01:22:57.061Z,105.20
2019-03-30T01:23:57.068Z,107.60
2019-03-30T01:24:57.094Z,99.60
2019-03-30T01:25:57.033Z,103.10
2019-03-30T01:26:57.050Z,103.90
2019-03-30T01:27:57.008Z,104.90
2019-03-30T01:28:56.999Z,101.20
2019-03-30T01:29:57.114Z,101.40
2019-03-30T01:30:57.019Z,103.10
2019-03-30T01:31:56.967Z,98.00
2019-03-30T01:32:56.967Z,103.20
2019-03-30T01:33:56.954Z,101.90
2019-03-30T01:34:56.940Z,102.70
2019-03-30T01:35:56.942Z,107.30
2019-03-30T01:36:56.949Z,103.50
2019-03-30T01:37:56.904Z,102.90
2019-03-30T01:38:56.907Z,100.90
2019-03-30T01:39:56.904Z,103.50
2019-03-30T01:40:56.927Z,98.70
2019-03-30T01:41:56.923Z,106.80
2019-03-30T01:42:56.889Z,99.80
2019-03-30T01:43:56.831Z,106.10
2019-03-30T01:44:56.831Z,104.30
2019-03-30T01:45:56.813Z,107.30
2019-03-30T01:46:56.822Z,106.90
2019-03-30T01:47:56.814Z,111.70
2019-03-30T01:48:56.799Z,106.10
2019-03-30T01:49:56.763Z,103.50
2019-03-30T01:50:56.778Z,103.40
2019-03-30T01:51:56.742Z,103.40
2019-03-30T01:52:56.736Z,105.70
2019-03-30T01:53:56.747Z,103.50
2019-03-30T01:54:56.710Z,106.70
2019-03-30T01:55:56.695Z,107.60
2019-03-30T01:56:56.688Z,103.70
2019-03-30T01:57:56.671Z,103.50
2019-03-30T01:58:56.662Z,105.90
2019-03-30T01:59:56.727Z,106.30
2019-03-30T02:00:56.649Z,107.80
2019-03-30T02:01:56.637Z,106.20
2019-03-30T02:02:56.624Z,103.90
2019-03-30T02:03:56.613Z,105.70
2019-03-30T02:04:56.603Z,103.20
2019-03-30T02:05:56.627Z,100.40
2019-03-30T02:06:56.575Z,101.00
2019-03-30T02:07:56.563Z,105.10
2019-03-30T02:08:56.570Z,99.60
2019-03-30T02:09:56.559Z,105.50
2019-03-30T02:10:56.554Z,106.10
2019-03-30T02:11:56.558Z,101.30
2019-03-30T02:12:56.528Z,102.10
2019-03-30T02:13:56.504Z,101.30
2019-03-30T02:14:56.496Z,105.20
2019-03-30T02:15:56.487Z,106.60
2019-03-30T02:16:56.479Z,105.40
2019-03-30T02:17:56.494Z,106.90
2019-03-30T02:18:56.467Z,107.10
2019-03-30T02:19:56.432Z,104.90
2019-03-30T02:20:56.426Z,105.20
2019-03-30T02:21:56.413Z,107.80
2019-03-30T02:22:56.405Z,107.50
2019-03-30T02:23:56.446Z,105.20
2019-03-30T02:24:56.385Z,105.40
2019-03-30T02:25:56.485Z,101.70
2019-03-30T02:26:56.355Z,101.30
2019-03-30T02:27:56.419Z,103.70
2019-03-30T02:28:56.338Z,109.90
2019-03-30T02:29:56.342Z,109.20
2019-03-30T02:30:56.319Z,108.50
2019-03-30T02:31:56.345Z,108.40
2019-03-30T02:32:56.336Z,108.30
2019-03-30T02:33:56.275Z,102.40
2019-03-30T02:34:56.288Z,112.80
2019-03-30T02:35:56.290Z,104.40
2019-03-30T02:36:56.243Z,106.40
2019-03-30T02:37:56.234Z,110.50
2019-03-30T02:38:56.227Z,107.30
2019-03-30T02:39:56.224Z,103.40
2019-03-30T02:40:56.201Z,109.60
2019-03-30T02:41:56.238Z,108.50
2019-03-30T02:42:56.200Z,106.10
2019-03-30T02:43:56.171Z,106.30
2019-03-30T02:44:56.162Z,107.70
2019-03-30T02:45:56.157Z,109.00
2019-03-30T02:46:56.147Z,111.80
2019-03-30T02:47:56.167Z,107.80
2019-03-30T02:48:56.139Z,108.00
2019-03-30T02:49:56.108Z,111.00
2019-03-30T02:50:56.095Z,109.40
2019-03-30T02:51:56.088Z,104.20
2019-03-30T02:52:56.107Z,107.90
2019-03-30T02:53:56.069Z,107.60
2019-03-30T02:54:56.051Z,110.70
2019-03-30T02:55:56.069Z,107.90
2019-03-30T02:56:56.038Z,107.30
2019-03-30T02:57:56.031Z,108.50
2019-03-30T02:58:56.054Z,112.50
2019-03-30T02:59:56.021Z,105.20
2019-03-30T03:00:55.988Z,108.50
2019-03-30T03:01:55.990Z,108.50
2019-03-30T03:02:55.985Z,108.10
2019-03-30T03:03:55.961Z,111.40
2019-03-30T03:04:56.003Z,109.60
2019-03-30T03:05:55.943Z,109.40
2019-03-30T03:06:55.952Z,110.30
2019-03-30T03:07:55.967Z,101.40
2019-03-30T03:08:55.942Z,116.10
2019-03-30T03:09:55.888Z,109.70
2019-03-30T03:10:55.903Z,117.10
2019-03-30T03:11:55.899Z,108.10
2019-03-30T03:12:55.853Z,110.60
2019-03-30T03:13:55.860Z,109.30
2019-03-30T03:14:55.887Z,107.70
2019-03-30T03:15:55.849Z,104.70
2019-03-30T03:16:55.847Z,111.50
2019-03-30T03:17:55.815Z,106.90
2019-03-30T03:18:55.813Z,103.50
2019-03-30T03:19:55.791Z,110.30
2019-03-30T03:21:07.451Z,108.00
2019-03-30T03:21:56.767Z,113.10
2019-03-30T03:22:55.754Z,106.10
2019-03-30T03:23:55.748Z,109.20
2019-03-30T03:24:55.731Z,106.20
2019-03-30T03:25:55.723Z,111.00
2019-03-30T03:26:55.784Z,107.80
2019-03-30T03:27:55.736Z,111.90
2019-03-30T03:28:55.721Z,109.20
2019-03-30T03:29:55.674Z,111.50
2019-03-30T03:30:55.702Z,110.80
2019-03-30T03:31:55.717Z,113.80
2019-03-30T03:32:55.670Z,109.70
2019-03-30T03:33:55.650Z,107.30
2019-03-30T03:34:55.668Z,110.80
2019-03-30T03:35:55.615Z,113.40
2019-03-30T03:36:55.619Z,110.30
2019-03-30T03:37:55.656Z,110.50
2019-03-30T03:38:55.638Z,106.10
2019-03-30T03:39:55.601Z,107.80
2019-03-30T03:40:55.585Z,113.40
2019-03-30T03:41:55.559Z,113.10
2019-03-30T03:42:55.556Z,110.90
2019-03-30T03:43:55.572Z,112.20
2019-03-30T03:44:55.537Z,114.00
2019-03-30T03:45:55.561Z,116.80
2019-03-30T03:46:55.514Z,115.50
2019-03-30T03:47:55.496Z,114.00
2019-03-30T03:48:55.477Z,110.50
2019-03-30T03:49:55.506Z,107.90
2019-03-30T03:50:55.498Z,114.40
2019-03-30T03:51:55.457Z,112.00
2019-03-30T03:52:55.432Z,112.10
2019-03-30T03:53:55.416Z,109.10
2019-03-30T03:54:55.429Z,111.40
2019-03-30T03:55:55.409Z,111.30
2019-03-30T03:56:55.404Z,112.60
2019-03-30T03:57:55.396Z,107.10
2019-03-30T03:58:55.364Z,110.00
2019-03-30T03:59:55.357Z,113.40
2019-03-30T04:00:55.388Z,108.70
2019-03-30T04:01:55.350Z,112.40
2019-03-30T04:02:55.393Z,117.50
2019-03-30T04:03:55.332Z,112.60
2019-03-30T04:04:55.325Z,110.20
2019-03-30T04:05:55.321Z,111.80
2019-03-30T04:06:55.601Z,107.90
2019-03-30T04:07:55.337Z,105.10
2019-03-30T04:08:55.260Z,108.00
2019-03-30T04:09:55.239Z,103.50
2019-03-30T04:10:55.232Z,101.80
2019-03-30T04:11:55.224Z,109.20
2019-03-30T04:12:55.238Z,107.30
2019-03-30T04:13:55.239Z,105.30
2019-03-30T04:14:55.197Z,103.20
2019-03-30T04:15:55.238Z,106.70
2019-03-30T04:16:55.168Z,105.20
2019-03-30T04:17:55.180Z,103.40
2019-03-30T04:18:55.172Z,103.00
2019-03-30T04:19:55.149Z,100.40
2019-03-30T04:20:55.147Z,106.60
2019-03-30T04:21:55.123Z,100.70
2019-03-30T04:22:55.108Z,104.50
2019-03-30T04:23:55.146Z,103.30
2019-03-30T04:24:55.103Z,101.30
2019-03-30T04:25:55.082Z,103.00
2019-03-30T04:26:55.115Z,100.30
2019-03-30T04:27:55.052Z,99.00
2019-03-30T04:28:55.085Z,102.90
2019-03-30T04:29:55.095Z,97.30
2019-03-30T04:30:55.020Z,97.80
2019-03-30T04:31:55.037Z,98.30
2019-03-30T04:32:55.051Z,97.40
2019-03-30T04:33:55.051Z,98.80
2019-03-30T04:34:54.997Z,99.50
2019-03-30T04:35:57.785Z,95.20
2019-03-30T04:36:54.952Z,100.30
2019-03-30T04:37:54.983Z,99.10
2019-03-30T04:38:55.004Z,96.10
2019-03-30T04:39:54.917Z,95.30
2019-03-30T04:40:54.920Z,90.90
2019-03-30T04:41:54.928Z,97.30
2019-03-30T04:42:54.889Z,93.20
2019-03-30T04:43:54.890Z,91.50
2019-03-30T04:44:54.913Z,88.40
2019-03-30T04:45:54.861Z,93.10
2019-03-30T04:46:54.846Z,91.60
2019-03-30T04:47:54.855Z,90.40
2019-03-30T04:48:54.854Z,92.60
2019-03-30T04:49:54.818Z,92.20
2019-03-30T04:50:54.805Z,87.00
2019-03-30T04:51:57.756Z,89.20
2019-03-30T04:52:54.796Z,91.80
2019-03-30T04:53:54.786Z,85.30
2019-03-30T04:54:54.811Z,88.40
2019-03-30T04:55:54.754Z,89.10
2019-03-30T04:56:54.737Z,84.80
2019-03-30T04:57:57.728Z,83.30
2019-03-30T04:58:54.730Z,84.30
2019-03-30T04:59:54.707Z,88.20
2019-03-30T05:00:54.692Z,81.80
2019-03-30T05:01:54.680Z,81.90
2019-03-30T05:02:54.708Z,79.00
2019-03-30T05:03:54.702Z,78.90
2019-03-30T05:04:54.669Z,78.00
2019-03-30T05:05:54.643Z,81.80
2019-03-30T05:06:54.634Z,80.80
2019-03-30T05:07:54.622Z,79.60
2019-03-30T05:08:54.632Z,77.00
2019-03-30T05:09:54.600Z,77.40
2019-03-30T05:10:54.587Z,82.60
2019-03-30T05:11:54.596Z,83.50
2019-03-30T05:12:54.576Z,78.20
2019-03-30T05:13:54.575Z,81.10
2019-03-30T05:14:54.580Z,81.60
2019-03-30T05:15:54.566Z,78.90
2019-03-30T05:16:54.604Z,74.90
2019-03-30T05:17:54.511Z,76.00
2019-03-30T05:18:54.506Z,78.00
2019-03-30T05:19:54.499Z,77.80
2019-03-30T05:20:54.508Z,83.30
2019-03-30T05:21:54.477Z,84.90
2019-03-30T05:22:54.459Z,81.70
2019-03-30T05:23:54.485Z,80.90
2019-03-30T05:24:54.440Z,82.00
2019-03-30T05:25:54.426Z,83.30
2019-03-30T05:26:54.468Z,81.40
2019-03-30T05:27:54.414Z,84.50
2019-03-30T05:28:54.465Z,81.80
2019-03-30T05:29:54.467Z,83.20
2019-03-30T05:30:54.372Z,77.40
2019-03-30T05:31:54.383Z,77.20
2019-03-30T05:33:05.110Z,87.30
2019-03-30T05:33:55.351Z,86.30
2019-03-30T05:34:54.337Z,83.60
2019-03-30T05:35:54.357Z,80.90
2019-03-30T05:36:54.311Z,85.30
2019-03-30T05:37:54.321Z,84.60
2019-03-30T05:38:54.347Z,88.50
2019-03-30T05:39:54.294Z,87.60
2019-03-30T05:40:54.397Z,83.80
2019-03-30T05:41:54.276Z,82.00
2019-03-30T05:42:54.267Z,88.30
2019-03-30T05:43:54.252Z,83.20
2019-03-30T05:44:57.547Z,79.70
2019-03-30T05:45:54.227Z,78.40
2019-03-30T05:46:54.255Z,74.10
2019-03-30T05:47:54.233Z,78.40
2019-03-30T05:48:54.187Z,75.70
2019-03-30T05:49:54.203Z,74.20
2019-03-30T05:50:54.165Z,75.00
2019-03-30T05:51:54.217Z,72.30
2019-03-30T05:52:54.292Z,75.20
2019-03-30T05:53:54.123Z,72.60
2019-03-30T05:54:54.149Z,73.10
2019-03-30T05:55:54.145Z,72.20
2019-03-30T05:56:54.118Z,68.30
2019-03-30T05:57:54.083Z,66.50
2019-03-30T05:58:54.072Z,63.50
2019-03-30T05:59:55.838Z,64.70
2019-03-30T06:00:54.101Z,60.40
2019-03-30T06:01:54.049Z,60.20
2019-03-30T06:02:54.044Z,63.80
2019-03-30T06:03:54.066Z,58.90
2019-03-30T06:04:54.081Z,63.40
2019-03-30T06:05:54.025Z,57.00
2019-03-30T06:06:53.990Z,59.70
2019-03-30T06:07:53.985Z,57.10
2019-03-30T06:08:53.977Z,61.80
2019-03-30T06:09:53.987Z,58.30
2019-03-30T06:10:53.953Z,57.50
2019-03-30T06:11:53.966Z,58.20
2019-03-30T06:12:53.927Z,56.70
2019-03-30T06:13:53.918Z,58.80
2019-03-30T06:14:53.913Z,62.20
2019-03-30T06:15:53.917Z,60.80
2019-03-30T06:16:53.894Z,61.20
2019-03-30T06:17:53.904Z,62.60
2019-03-30T06:18:53.855Z,60.50
2019-03-30T06:19:53.859Z,58.90
2019-03-30T06:20:53.866Z,63.60
2019-03-30T06:21:53.870Z,63.80
2019-03-30T06:22:53.882Z,63.00
2019-03-30T06:23:53.831Z,61.60
2019-03-30T06:24:53.809Z,63.30
2019-03-30T06:25:53.799Z,64.40
2019-03-30T06:26:53.767Z,60.90
2019-03-30T06:27:53.802Z,63.30
2019-03-30T06:28:53.749Z,60.30
2019-03-30T06:29:53.777Z,59.00
2019-03-30T06:30:53.784Z,58.40
2019-03-30T06:31:53.741Z,60.80
2019-03-30T06:32:53.731Z,61.40
2019-03-30T06:33:53.785Z,59.50
2019-03-30T06:34:53.689Z,58.90
2019-03-30T06:35:53.690Z,57.90
2019-03-30T06:36:53.677Z,60.20
2019-03-30T06:37:53.683Z,57.80
2019-03-30T06:38:53.673Z,60.40
2019-03-30T06:39:53.659Z,61.90
2019-03-30T06:40:53.627Z,60.20
2019-03-30T06:41:53.612Z,61.90
2019-03-30T06:42:53.618Z,61.60
2019-03-30T06:43:53.625Z,60.00
2019-03-30T06:44:53.587Z,59.40
2019-03-30T06:45:53.599Z,59.00
2019-03-30T06:46:53.592Z,56.20
2019-03-30T06:47:53.561Z,57.20
2019-03-30T06:48:53.558Z,61.50
2019-03-30T06:49:53.546Z,55.60
2019-03-30T06:50:53.508Z,58.00
2019-03-30T06:51:53.612Z,55.70
2019-03-30T06:52:57.827Z,55.30
2019-03-30T06:53:54.540Z,54.40
2019-03-30T06:54:53.481Z,54.80
2019-03-30T06:55:53.469Z,53.60
2019-03-30T06:56:53.453Z,55.30
2019-03-30T06:57:53.478Z,53.20
2019-03-30T06:58:53.421Z,53.00
2019-03-30T06:59:53.419Z,52.50
2019-03-30T07:00:53.625Z,52.70
2019-03-30T07:01:53.646Z,53.70
2019-03-30T07:02:53.406Z,50.20
2019-03-30T07:03:53.373Z,53.40
2019-03-30T07:04:53.364Z,50.80
2019-03-30T07:05:53.351Z,50.20
2019-03-30T07:06:53.369Z,47.00
2019-03-30T07:07:53.355Z,53.70
2019-03-30T07:08:53.342Z,52.20
2019-03-30T07:09:53.321Z,48.20
2019-03-30T07:10:53.311Z,49.40
2019-03-30T07:11:53.317Z,51.80
2019-03-30T07:12:53.290Z,50.00
2019-03-30T07:13:53.288Z,48.70
2019-03-30T07:14:53.273Z,47.50
2019-03-30T07:15:53.244Z,50.80
2019-03-30T07:16:53.344Z,48.50
2019-03-30T07:17:53.242Z,48.30
2019-03-30T07:18:53.240Z,47.10
2019-03-30T07:19:53.235Z,48.70
2019-03-30T07:20:53.199Z,48.20
2019-03-30T07:21:53.193Z,47.60
2019-03-30T07:22:53.256Z,46.50
2019-03-30T07:23:53.229Z,47.20
2019-03-30T07:24:53.147Z,48.10
2019-03-30T07:25:53.174Z,48.20
2019-03-30T07:26:53.187Z,46.30
2019-03-30T07:27:53.123Z,46.30
2019-03-30T07:28:53.114Z,45.50
2019-03-30T07:29:53.103Z,46.60
2019-03-30T07:30:53.105Z,44.90
2019-03-30T07:31:53.096Z,47.60
2019-03-30T07:32:53.064Z,45.60
2019-03-30T07:33:53.053Z,45.00
2019-03-30T07:34:53.127Z,44.90
2019-03-30T07:35:53.029Z,44.90
2019-03-30T07:36:53.022Z,44.10
2019-03-30T07:37:53.045Z,42.50
2019-03-30T07:38:52.988Z,45.50
2019-03-30T07:39:52.976Z,48.50
2019-03-30T07:40:52.984Z,43.60
2019-03-30T07:41:53.004Z,43.10
2019-03-30T07:42:52.970Z,43.00
2019-03-30T07:43:52.960Z,42.70
2019-03-30T07:44:52.937Z,43.50
2019-03-30T07:45:52.918Z,43.80
2019-03-30T07:46:52.907Z,42.00
2019-03-30T07:47:52.942Z,43.60
2019-03-30T07:48:52.885Z,43.40
2019-03-30T07:49:52.873Z,43.30
2019-03-30T07:50:52.854Z,42.50
2019-03-30T07:51:52.885Z,42.40
2019-03-30T07:52:52.845Z,44.60
2019-03-30T07:53:52.850Z,42.90
2019-03-30T07:54:52.954Z,45.10
2019-03-30T07:55:52.802Z,41.40
2019-03-30T07:57:04.241Z,41.30
2019-03-30T07:57:53.847Z,42.70
2019-03-30T07:58:52.806Z,43.00
2019-03-30T07:59:52.814Z,43.50
2019-03-30T08:00:52.772Z,40.70
2019-03-30T08:01:52.740Z,43.10
2019-03-30T08:02:55.533Z,42.00
2019-03-30T08:03:52.718Z,42.40
2019-03-30T08:04:52.734Z,41.60
2019-03-30T08:05:54.342Z,41.60
2019-03-30T08:06:52.686Z,41.00
2019-03-30T08:07:52.766Z,40.60
2019-03-30T08:08:52.657Z,43.00
2019-03-30T08:09:52.704Z,41.00
2019-03-30T08:10:52.666Z,40.30
2019-03-30T08:11:52.639Z,42.00
2019-03-30T08:12:52.703Z,42.80
2019-03-30T08:13:52.608Z,39.00
2019-03-30T08:14:52.604Z,41.90
2019-03-30T08:15:52.600Z,40.70
2019-03-30T08:16:52.601Z,41.30
2019-03-30T08:17:52.636Z,39.10
2019-03-30T08:18:52.551Z,38.40
2019-03-30T08:19:52.535Z,39.20
2019-03-30T08:20:52.758Z,42.60
2019-03-30T08:21:52.586Z,41.20
2019-03-30T08:22:52.552Z,43.90
2019-03-30T08:23:52.490Z,42.10
2019-03-30T08:24:52.480Z,41.30
2019-03-30T08:25:52.468Z,42.60
2019-03-30T08:26:52.593Z,42.40
2019-03-30T08:27:52.463Z,39.80
2019-03-30T08:28:52.476Z,41.70
2019-03-30T08:29:52.434Z,41.70
2019-03-30T08:30:52.450Z,43.80
2019-03-30T08:31:52.409Z,44.20
2019-03-30T08:32:52.433Z,41.50
2019-03-30T08:33:52.395Z,42.30
2019-03-30T08:34:52.379Z,45.10
2019-03-30T08:35:52.372Z,41.90
2019-03-30T08:36:52.419Z,44.90
2019-03-30T08:37:52.432Z,44.80
2019-03-30T08:38:52.412Z,42.00
2019-03-30T08:39:52.363Z,45.80
2019-03-30T08:40:52.550Z,44.70
2019-03-30T08:41:53.094Z,43.90
2019-03-30T08:42:52.346Z,42.20
2019-03-30T08:43:52.280Z,46.30
2019-03-30T08:44:52.289Z,46.40
2019-03-30T08:45:52.260Z,46.20
2019-03-30T08:46:52.262Z,43.10
2019-03-30T08:47:52.239Z,42.90
2019-03-30T08:48:52.221Z,43.40
2019-03-30T08:49:52.234Z,42.50
2019-03-30T08:50:52.210Z,45.20
2019-03-30T08:51:52.447Z,44.40
2019-03-30T08:52:52.229Z,41.80
2019-03-30T08:53:54.822Z,42.00
2019-03-30T08:54:52.152Z,40.50
2019-03-30T08:55:52.164Z,41.90
2019-03-30T08:56:52.131Z,42.30
2019-03-30T08:57:52.341Z,41.60
2019-03-30T08:58:52.113Z,40.80
2019-03-30T08:59:52.165Z,40.10
2019-03-30T09:00:52.216Z,39.70
2019-03-30T09:01:52.104Z,38.40
2019-03-30T09:02:52.066Z,39.40
2019-03-30T09:03:52.166Z,39.70
2019-03-30T09:04:52.085Z,39.80
2019-03-30T09:05:52.048Z,38.50
2019-03-30T09:06:52.019Z,38.80
2019-03-30T09:07:52.032Z,39.10
2019-03-30T09:08:52.015Z,37.80
2019-03-30T09:09:52.087Z,36.30
2019-03-30T09:10:51.993Z,36.60
2019-03-30T09:11:51.972Z,38.20
2019-03-30T09:12:51.958Z,36.20
2019-03-30T09:13:51.993Z,35.80
2019-03-30T09:14:51.940Z,36.60
2019-03-30T09:15:52.023Z,36.10
2019-03-30T09:16:51.914Z,34.60
2019-03-30T09:17:51.920Z,34.00
2019-03-30T09:18:51.926Z,34.30
2019-03-30T09:19:51.884Z,32.40
2019-03-30T09:20:51.883Z,35.80
2019-03-30T09:21:51.867Z,34.00
2019-03-30T09:22:51.872Z,36.00
2019-03-30T09:23:51.848Z,35.70
2019-03-30T09:24:51.862Z,30.70
2019-03-30T09:25:51.820Z,32.60
2019-03-30T09:26:51.821Z,34.20
2019-03-30T09:27:51.976Z,31.40
2019-03-30T09:28:51.813Z,31.40
2019-03-30T09:29:51.770Z,29.40
2019-03-30T09:30:51.787Z,32.90
2019-03-30T09:31:51.771Z,30.80
2019-03-30T09:32:51.740Z,29.20
2019-03-30T09:33:51.766Z,32.40
2019-03-30T09:34:51.714Z,30.80
2019-03-30T09:35:51.741Z,31.00
2019-03-30T09:36:51.785Z,31.60
2019-03-30T09:37:51.689Z,30.00
2019-03-30T09:38:51.715Z,29.30
2019-03-30T09:39:51.676Z,31.00
2019-03-30T09:40:51.650Z,30.70
2019-03-30T09:41:51.684Z,31.40
2019-03-30T09:42:51.643Z,29.90
2019-03-30T09:43:51.635Z,29.10
2019-03-30T09:44:51.612Z,29.50
2019-03-30T09:45:51.616Z,28.90
2019-03-30T09:46:51.588Z,30.70
2019-03-30T09:47:51.600Z,30.90
2019-03-30T09:48:51.583Z,30.90
2019-03-30T09:49:51.593Z,28.70
2019-03-30T09:50:51.546Z,29.10
2019-03-30T09:51:51.543Z,27.60
2019-03-30T09:52:51.559Z,28.60
2019-03-30T09:53:51.541Z,27.50
2019-03-30T09:54:51.516Z,28.00
2019-03-30T09:55:51.507Z,26.90
2019-03-30T09:56:51.525Z,27.20
2019-03-30T09:57:51.473Z,27.20
2019-03-30T09:58:51.477Z,29.70
2019-03-30T09:59:51.519Z,26.50
2019-03-30T10:00:51.449Z,27.20
2019-03-30T10:01:51.438Z,27.70
2019-03-30T10:02:51.418Z,27.50
2019-03-30T10:03:51.405Z,26.10
2019-03-30T10:04:51.413Z,26.20
2019-03-30T10:05:51.404Z,26.30
2019-03-30T10:06:51.392Z,25.50
2019-03-30T10:07:51.364Z,27.50
2019-03-30T10:08:51.354Z,26.10
2019-03-30T10:09:51.341Z,26.90
2019-03-30T10:10:51.327Z,25.40
2019-03-30T10:11:51.357Z,26.70
2019-03-30T10:12:51.335Z,27.20
2019-03-30T10:13:51.310Z,25.80
2019-03-30T10:14:51.281Z,25.70
2019-03-30T10:15:51.297Z,26.00
2019-03-30T10:16:51.333Z,29.10
2019-03-30T10:17:51.274Z,28.40
2019-03-30T10:18:51.241Z,29.50
2019-03-30T10:20:03.633Z,25.90
2019-03-30T10:20:52.226Z,26.10
2019-03-30T10:21:51.212Z,27.20
2019-03-30T10:22:51.221Z,26.50
2019-03-30T10:23:51.230Z,26.40
2019-03-30T10:24:51.199Z,27.60
2019-03-30T10:25:51.224Z,27.10
2019-03-30T10:26:51.163Z,27.20
2019-03-30T10:27:51.146Z,28.00
2019-03-30T10:28:51.153Z,26.10
2019-03-30T10:29:51.150Z,27.70
2019-03-30T10:30:51.109Z,29.10
2019-03-30T10:31:51.096Z,30.00
2019-03-30T10:32:51.090Z,26.50
2019-03-30T10:33:51.085Z,27.80
2019-03-30T10:34:51.063Z,28.00
2019-03-30T10:35:51.089Z,27.90
2019-03-30T10:36:51.058Z,26.70
2019-03-30T10:37:51.036Z,26.80
2019-03-30T10:38:51.059Z,28.60
2019-03-30T10:39:51.016Z,29.50
2019-03-30T10:40:51.030Z,29.60
2019-03-30T10:41:51.010Z,26.90
2019-03-30T10:42:50.982Z,28.30
2019-03-30T10:43:50.975Z,27.50
2019-03-30T10:44:50.960Z,27.90
2019-03-30T10:45:50.970Z,29.70
2019-03-30T10:46:50.944Z,29.00
2019-03-30T10:47:50.945Z,28.70
2019-03-30T10:48:50.914Z,28.30
2019-03-30T10:49:50.912Z,28.70
2019-03-30T10:50:50.896Z,27.60
2019-03-30T10:51:54.194Z,28.60
2019-03-30T10:52:50.915Z,29.20
2019-03-30T10:53:50.866Z,29.30
2019-03-30T10:54:52.919Z,27.50
2019-03-30T10:55:50.857Z,29.20
2019-03-30T10:56:50.851Z,29.00
2019-03-30T10:57:50.837Z,30.10
2019-03-30T10:58:50.840Z,30.20
2019-03-30T10:59:50.802Z,30.20
2019-03-30T11:00:50.799Z,29.90
2019-03-30T11:01:51.566Z,28.30
2019-03-30T11:02:50.765Z,28.40
2019-03-30T11:03:51.093Z,28.40
2019-03-30T11:04:50.743Z,30.60
2019-03-30T11:05:50.725Z,29.50
2019-03-30T11:06:50.726Z,29.20
2019-03-30T11:07:50.713Z,29.70
2019-03-30T11:08:50.700Z,28.80
2019-03-30T11:09:50.750Z,31.20
2019-03-30T11:10:50.673Z,28.90
2019-03-30T11:11:50.672Z,30.40
2019-03-30T11:12:50.668Z,30.60
2019-03-30T11:13:50.658Z,30.80
2019-03-30T11:14:50.635Z,30.80
2019-03-30T11:15:50.684Z,30.70
2019-03-30T11:16:50.637Z,30.80
2019-03-30T11:17:50.614Z,29.90
2019-03-30T11:18:50.584Z,30.90
2019-03-30T11:19:50.598Z,31.30
2019-03-30T11:20:50.574Z,33.40
2019-03-30T11:21:50.610Z,31.90
2019-03-30T11:22:50.558Z,31.00
2019-03-30T11:23:50.580Z,31.80
2019-03-30T11:24:50.526Z,33.20
2019-03-30T11:25:50.708Z,29.60
2019-03-30T11:26:50.506Z,31.30
2019-03-30T11:27:50.508Z,32.40
2019-03-30T11:28:50.497Z,32.60
2019-03-30T11:29:50.501Z,32.30
2019-03-30T11:30:50.476Z,31.30
2019-03-30T11:31:50.499Z,32.40
2019-03-30T11:32:50.446Z,32.80
2019-03-30T11:33:50.434Z,30.80
2019-03-30T11:34:50.412Z,31.60
2019-03-30T11:35:50.431Z,31.30
2019-03-30T11:36:50.470Z,30.70
2019-03-30T11:37:50.461Z,30.60
2019-03-30T11:38:50.372Z,28.20
2019-03-30T11:39:50.452Z,30.10
2019-03-30T11:40:50.390Z,28.40
2019-03-30T11:41:50.334Z,29.10
2019-03-30T11:42:50.331Z,30.50
2019-03-30T11:43:50.382Z,27.80
2019-03-30T11:44:50.313Z,28.50
2019-03-30T11:45:50.294Z,28.20
2019-03-30T11:46:50.316Z,25.90
2019-03-30T11:47:50.274Z,28.30
2019-03-30T11:48:50.272Z,27.80
2019-03-30T11:49:50.344Z,27.00
2019-03-30T11:50:50.249Z,27.50
2019-03-30T11:51:50.231Z,27.50
2019-03-30T11:52:50.209Z,28.00
2019-03-30T11:53:50.212Z,27.00
2019-03-30T11:54:50.222Z,28.90
2019-03-30T11:55:50.242Z,26.00
2019-03-30T11:56:50.183Z,28.10
2019-03-30T11:57:50.192Z,27.80
2019-03-30T11:58:50.150Z,27.00
2019-03-30T11:59:50.142Z,27.00
2019-03-30T12:00:50.147Z,27.10
2019-03-30T12:01:50.114Z,27.70
2019-03-30T12:02:50.120Z,27.00
2019-03-30T12:03:50.118Z,27.10
2019-03-30T12:04:50.087Z,26.80
2019-03-30T12:05:50.147Z,27.70
2019-03-30T12:06:51.826Z,25.90
2019-03-30T12:07:50.054Z,27.10
2019-03-30T12:08:50.046Z,26.30
2019-03-30T12:09:50.034Z,26.00
2019-03-30T12:10:50.019Z,26.30
2019-03-30T12:11:50.035Z,26.40
2019-03-30T12:12:50.020Z,26.60
2019-03-30T12:13:49.986Z,24.80
2019-03-30T12:14:50.075Z,23.70
2019-03-30T12:15:49.974Z,25.40
2019-03-30T12:16:49.978Z,23.00
2019-03-30T12:17:50.012Z,22.30
2019-03-30T12:18:49.933Z,22.10
2019-03-30T12:19:49.925Z,22.00
2019-03-30T12:20:50.032Z,22.90
2019-03-30T12:21:49.908Z,22.50
2019-03-30T12:22:49.943Z,25.70
2019-03-30T12:23:49.986Z,22.40
2019-03-30T12:24:49.880Z,22.80
2019-03-30T12:25:49.890Z,23.00
2019-03-30T12:26:49.876Z,23.60
2019-03-30T12:27:49.871Z,23.70
2019-03-30T12:28:49.830Z,25.40
2019-03-30T12:29:49.838Z,25.60
2019-03-30T12:30:49.828Z,24.10
2019-03-30T12:31:49.853Z,25.50
2019-03-30T12:32:49.804Z,24.50
2019-03-30T12:33:49.813Z,25.20
2019-03-30T12:34:49.819Z,24.00
2019-03-30T12:35:49.750Z,25.50
2019-03-30T12:36:49.764Z,24.00
2019-03-30T12:37:49.767Z,23.50
2019-03-30T12:38:49.717Z,24.60
2019-03-30T12:39:49.747Z,24.20
2019-03-30T12:40:49.769Z,22.60
2019-03-30T12:41:49.686Z,23.00
2019-03-30T12:42:49.772Z,22.50
2019-03-30T12:43:49.687Z,23.20
2019-03-30T12:44:49.662Z,22.20
2019-03-30T12:45:49.644Z,23.30